GK400 RJOM-RJTT
Flight info
| Callsign | GK400 |
|---|---|
| Flight time | N/A |
| Altitude | 37000 |
| Route | SAKAR KRE V37 PADOC Y43 MENUR Y21 AKSEL |
| Aircraft | A20N/M-SDE2E3FGHIRWXY/LB1 |
Departure
| Time | N/A |
|---|---|
| Airport | Matsuyama Airport (RJOM) |
Arrival
| Time | 2026-05-07 08:02 |
|---|---|
| Airport | Tokyo Haneda International Airport (RJTT) |
| Time | Latitude | Longitude | Altitude | Speed | Heading |
|---|---|---|---|---|---|
| 2026-05-07 07:16 | 33.83009 | 137.82082 | 33016 ft | 494 kts | 81° |
| 2026-05-07 07:16 | 33.84456 | 137.90150 | 33015 ft | 493 kts | 81° |
| 2026-05-07 07:17 | 33.85885 | 137.98158 | 33010 ft | 492 kts | 81° |
| 2026-05-07 07:17 | 33.87314 | 138.06197 | 33002 ft | 491 kts | 81° |
| 2026-05-07 07:18 | 33.88742 | 138.14257 | 33000 ft | 491 kts | 81° |
| 2026-05-07 07:18 | 33.90161 | 138.22300 | 32994 ft | 491 kts | 81° |
| 2026-05-07 07:19 | 33.92248 | 138.30191 | 33013 ft | 500 kts | 68° |
| 2026-05-07 07:19 | 33.95495 | 138.37640 | 33015 ft | 502 kts | 64° |
| 2026-05-07 07:20 | 33.98793 | 138.45057 | 33013 ft | 503 kts | 64° |
| 2026-05-07 07:20 | 34.02069 | 138.52445 | 33014 ft | 503 kts | 64° |
| 2026-05-07 07:21 | 34.05368 | 138.59897 | 33011 ft | 503 kts | 64° |
| 2026-05-07 07:21 | 34.08661 | 138.67351 | 33009 ft | 504 kts | 64° |
| 2026-05-07 07:22 | 34.11957 | 138.74828 | 33013 ft | 504 kts | 64° |
| 2026-05-07 07:22 | 34.15246 | 138.82304 | 33017 ft | 504 kts | 64° |
| 2026-05-07 07:23 | 34.18512 | 138.89744 | 33012 ft | 504 kts | 64° |
| 2026-05-07 07:23 | 34.21795 | 138.97239 | 33013 ft | 505 kts | 64° |
| 2026-05-07 07:24 | 34.25072 | 139.04735 | 33013 ft | 505 kts | 64° |
| 2026-05-07 07:24 | 34.28339 | 139.12270 | 33009 ft | 505 kts | 66° |
| 2026-05-07 07:25 | 34.32418 | 139.23982 | 33004 ft | 504 kts | 69° |
| 2026-05-07 07:26 | 34.35115 | 139.31795 | 32216 ft | 500 kts | 69° |
| 2026-05-07 07:26 | 34.36442 | 139.35651 | 31103 ft | 504 kts | 70° |
| 2026-05-07 07:26 | 34.37796 | 139.39590 | 29754 ft | 510 kts | 70° |
| 2026-05-07 07:26 | 34.39165 | 139.43585 | 28274 ft | 515 kts | 69° |
| 2026-05-07 07:27 | 34.40532 | 139.47573 | 27263 ft | 509 kts | 69° |
| 2026-05-07 07:27 | 34.41879 | 139.51507 | 26349 ft | 501 kts | 69° |
| 2026-05-07 07:27 | 34.43205 | 139.55381 | 25443 ft | 494 kts | 69° |
| 2026-05-07 07:27 | 34.44494 | 139.59157 | 24561 ft | 488 kts | 69° |
| 2026-05-07 07:28 | 34.45784 | 139.62939 | 23703 ft | 482 kts | 69° |
| 2026-05-07 07:28 | 34.47055 | 139.66668 | 22744 ft | 475 kts | 68° |
| 2026-05-07 07:28 | 34.48601 | 139.70172 | 21789 ft | 470 kts | 55° |
| 2026-05-07 07:28 | 34.50704 | 139.73167 | 20867 ft | 462 kts | 41° |
| 2026-05-07 07:29 | 34.53242 | 139.75496 | 19979 ft | 453 kts | 30° |
| 2026-05-07 07:29 | 34.55905 | 139.77391 | 19138 ft | 446 kts | 27° |
| 2026-05-07 07:29 | 34.58593 | 139.79214 | 18320 ft | 439 kts | 27° |
| 2026-05-07 07:29 | 34.61235 | 139.81038 | 17414 ft | 433 kts | 27° |
| 2026-05-07 07:30 | 34.63802 | 139.82864 | 16833 ft | 420 kts | 28° |
| 2026-05-07 07:30 | 34.66283 | 139.84637 | 16322 ft | 405 kts | 25° |
| 2026-05-07 07:30 | 34.68797 | 139.86011 | 15817 ft | 389 kts | 16° |
| 2026-05-07 07:30 | 34.71357 | 139.86929 | 15329 ft | 376 kts | 11° |
| 2026-05-07 07:31 | 34.73853 | 139.87728 | 14850 ft | 367 kts | 11° |
| 2026-05-07 07:31 | 34.76289 | 139.88524 | 14391 ft | 361 kts | 12° |
| 2026-05-07 07:31 | 34.78724 | 139.89320 | 13925 ft | 368 kts | 12° |
| 2026-05-07 07:31 | 34.81264 | 139.90146 | 13592 ft | 384 kts | 12° |
| 2026-05-07 07:32 | 34.83843 | 139.90990 | 13339 ft | 384 kts | 12° |
| 2026-05-07 07:32 | 34.86408 | 139.91834 | 13158 ft | 378 kts | 12° |
| 2026-05-07 07:32 | 34.88835 | 139.92947 | 13058 ft | 380 kts | 24° |
| 2026-05-07 07:32 | 34.91086 | 139.94665 | 12987 ft | 384 kts | 37° |
| 2026-05-07 07:33 | 34.93117 | 139.96780 | 12986 ft | 384 kts | 39° |
| 2026-05-07 07:33 | 34.95167 | 139.98864 | 12950 ft | 384 kts | 34° |
| 2026-05-07 07:33 | 34.97479 | 140.00470 | 12696 ft | 381 kts | 23° |
| 2026-05-07 07:33 | 34.99862 | 140.01846 | 12443 ft | 378 kts | 22° |
| 2026-05-07 07:34 | 35.02246 | 140.03179 | 12198 ft | 376 kts | 22° |
| 2026-05-07 07:34 | 35.04626 | 140.04475 | 11948 ft | 374 kts | 21° |
| 2026-05-07 07:34 | 35.07007 | 140.05752 | 11703 ft | 373 kts | 21° |
| 2026-05-07 07:34 | 35.09379 | 140.07018 | 11453 ft | 372 kts | 21° |
| 2026-05-07 07:35 | 35.11748 | 140.08280 | 11214 ft | 370 kts | 21° |
| 2026-05-07 07:35 | 35.14102 | 140.09536 | 10975 ft | 369 kts | 21° |
| 2026-05-07 07:35 | 35.16462 | 140.10796 | 10524 ft | 370 kts | 21° |
| 2026-05-07 07:35 | 35.18780 | 140.12036 | 10361 ft | 358 kts | 21° |
| 2026-05-07 07:36 | 35.21026 | 140.13240 | 10244 ft | 345 kts | 21° |
| 2026-05-07 07:36 | 35.23182 | 140.14396 | 10117 ft | 332 kts | 21° |
| 2026-05-07 07:36 | 35.25271 | 140.15516 | 9942 ft | 323 kts | 21° |
| 2026-05-07 07:36 | 35.27319 | 140.16612 | 9587 ft | 320 kts | 21° |
| 2026-05-07 07:37 | 35.29352 | 140.17699 | 9216 ft | 317 kts | 21° |
| 2026-05-07 07:37 | 35.31319 | 140.18730 | 9084 ft | 307 kts | 16° |
| 2026-05-07 07:37 | 35.37174 | 140.17577 | 8714 ft | 289 kts | 325° |
| 2026-05-07 07:37 | 35.44122 | 140.12705 | 8220 ft | 286 kts | 325° |
| 2026-05-07 07:38 | 35.51017 | 140.07819 | 7728 ft | 284 kts | 326° |
| 2026-05-07 07:38 | 35.57843 | 140.02969 | 7248 ft | 282 kts | 326° |
| 2026-05-07 07:38 | 35.64592 | 139.98159 | 6775 ft | 280 kts | 326° |
| 2026-05-07 07:38 | 35.69983 | 139.94312 | 6394 ft | 278 kts | 327° |
| 2026-05-07 07:39 | 35.71652 | 139.93121 | 6282 ft | 278 kts | 327° |
| 2026-05-07 07:39 | 35.73337 | 139.91918 | 6164 ft | 278 kts | 327° |
| 2026-05-07 07:39 | 35.74993 | 139.90735 | 6030 ft | 279 kts | 327° |
| 2026-05-07 07:39 | 35.76666 | 139.89537 | 5981 ft | 277 kts | 327° |
| 2026-05-07 07:40 | 35.78302 | 139.88287 | 5959 ft | 275 kts | 318° |
| 2026-05-07 07:40 | 35.79497 | 139.86516 | 5880 ft | 265 kts | 294° |
| 2026-05-07 07:40 | 35.80131 | 139.84443 | 5813 ft | 253 kts | 286° |
| 2026-05-07 07:40 | 35.80681 | 139.82438 | 5711 ft | 242 kts | 286° |
| 2026-05-07 07:41 | 35.81157 | 139.80495 | 5527 ft | 234 kts | 279° |
| 2026-05-07 07:41 | 35.81429 | 139.78539 | 5232 ft | 232 kts | 277° |
| 2026-05-07 07:41 | 35.81701 | 139.76579 | 4918 ft | 233 kts | 277° |
| 2026-05-07 07:41 | 35.81830 | 139.74608 | 4603 ft | 230 kts | 258° |
| 2026-05-07 07:42 | 35.81175 | 139.72885 | 4398 ft | 220 kts | 225° |
| 2026-05-07 07:42 | 35.79957 | 139.71848 | 4298 ft | 210 kts | 209° |
| 2026-05-07 07:42 | 35.78681 | 139.70973 | 4187 ft | 214 kts | 210° |
| 2026-05-07 07:42 | 35.77372 | 139.70063 | 4062 ft | 217 kts | 210° |
| 2026-05-07 07:43 | 35.76071 | 139.69149 | 3978 ft | 213 kts | 210° |
| 2026-05-07 07:43 | 35.74734 | 139.68473 | 3961 ft | 211 kts | 189° |
| 2026-05-07 07:43 | 35.73236 | 139.68584 | 3903 ft | 219 kts | 172° |
| 2026-05-07 07:43 | 35.71784 | 139.68922 | 3825 ft | 211 kts | 172° |
| 2026-05-07 07:44 | 35.70390 | 139.69247 | 3717 ft | 197 kts | 171° |
| 2026-05-07 07:44 | 35.69125 | 139.69747 | 3519 ft | 189 kts | 157° |
| 2026-05-07 07:44 | 35.68033 | 139.70537 | 3470 ft | 182 kts | 153° |
| 2026-05-07 07:44 | 35.66930 | 139.71336 | 3391 ft | 186 kts | 154° |
| 2026-05-07 07:45 | 35.65822 | 139.72122 | 3353 ft | 180 kts | 155° |
| 2026-05-07 07:45 | 35.64795 | 139.72853 | 3282 ft | 164 kts | 155° |
| 2026-05-07 07:45 | 35.63825 | 139.73538 | 2989 ft | 161 kts | 155° |
| 2026-05-07 07:45 | 35.62853 | 139.74222 | 2626 ft | 163 kts | 155° |
| 2026-05-07 07:46 | 35.61845 | 139.74929 | 2104 ft | 171 kts | 155° |
| 2026-05-07 07:46 | 35.60790 | 139.75665 | 1463 ft | 178 kts | 154° |
| 2026-05-07 07:46 | 35.59737 | 139.76435 | 926 ft | 180 kts | 152° |
| 2026-05-07 07:46 | 35.58666 | 139.77205 | 554 ft | 174 kts | 153° |
| 2026-05-07 07:47 | 35.57693 | 139.77861 | 574 ft | 162 kts | 153° |
| 2026-05-07 07:47 | 35.56688 | 139.78608 | 1288 ft | 164 kts | 153° |
| 2026-05-07 07:47 | 35.55738 | 139.79342 | 2079 ft | 168 kts | 142° |
| 2026-05-07 07:47 | 35.55180 | 139.80665 | 2737 ft | 186 kts | 101° |
| 2026-05-07 07:48 | 35.55217 | 139.82281 | 3460 ft | 193 kts | 85° |
| 2026-05-07 07:48 | 35.55460 | 139.83910 | 4184 ft | 195 kts | 81° |
| 2026-05-07 07:48 | 35.55727 | 139.85555 | 4896 ft | 198 kts | 81° |
| 2026-05-07 07:48 | 35.55967 | 139.87237 | 5421 ft | 204 kts | 82° |
| 2026-05-07 07:49 | 35.56178 | 139.88945 | 5525 ft | 201 kts | 84° |
| 2026-05-07 07:49 | 35.56367 | 139.90658 | 5630 ft | 203 kts | 84° |
| 2026-05-07 07:49 | 35.56547 | 139.92371 | 5740 ft | 202 kts | 84° |
| 2026-05-07 07:49 | 35.56730 | 139.94165 | 5878 ft | 226 kts | 84° |
| 2026-05-07 07:50 | 35.56929 | 139.96112 | 5951 ft | 236 kts | 84° |
| 2026-05-07 07:50 | 35.57136 | 139.98109 | 5951 ft | 236 kts | 84° |
| 2026-05-07 07:50 | 35.57439 | 140.00088 | 5937 ft | 243 kts | 70° |
| 2026-05-07 07:50 | 35.58464 | 140.01929 | 5961 ft | 282 kts | 40° |
| 2026-05-07 07:51 | 35.60197 | 140.03114 | 5956 ft | 288 kts | 13° |
| 2026-05-07 07:51 | 35.62155 | 140.03240 | 5955 ft | 281 kts | 345° |
| 2026-05-07 07:51 | 35.63916 | 140.02286 | 5954 ft | 276 kts | 318° |
| 2026-05-07 07:51 | 35.65231 | 140.00603 | 5953 ft | 272 kts | 307° |
| 2026-05-07 07:52 | 35.66472 | 139.98837 | 5954 ft | 274 kts | 310° |
| 2026-05-07 07:52 | 35.67853 | 139.97204 | 5955 ft | 275 kts | 316° |
| 2026-05-07 07:52 | 35.69348 | 139.95742 | 5957 ft | 276 kts | 321° |
| 2026-05-07 07:52 | 35.70924 | 139.94376 | 5956 ft | 277 kts | 323° |
| 2026-05-07 07:53 | 35.72506 | 139.93084 | 5961 ft | 277 kts | 324° |
| 2026-05-07 07:53 | 35.74119 | 139.91791 | 5956 ft | 277 kts | 324° |
| 2026-05-07 07:53 | 35.75741 | 139.90494 | 5961 ft | 278 kts | 324° |
| 2026-05-07 07:53 | 35.77358 | 139.89195 | 5959 ft | 277 kts | 324° |
| 2026-05-07 07:54 | 35.78822 | 139.87699 | 5966 ft | 273 kts | 307° |
| 2026-05-07 07:54 | 35.79775 | 139.85705 | 5966 ft | 270 kts | 288° |
| 2026-05-07 07:54 | 35.80378 | 139.83510 | 5966 ft | 269 kts | 287° |
| 2026-05-07 07:54 | 35.80961 | 139.81372 | 5952 ft | 256 kts | 284° |
| 2026-05-07 07:55 | 35.81324 | 139.79286 | 5710 ft | 244 kts | 277° |
| 2026-05-07 07:55 | 35.81604 | 139.77248 | 5269 ft | 240 kts | 277° |
| 2026-05-07 07:55 | 35.81798 | 139.75206 | 4682 ft | 239 kts | 264° |
| 2026-05-07 07:55 | 35.81279 | 139.73330 | 4348 ft | 225 kts | 234° |
| 2026-05-07 07:56 | 35.80213 | 139.72051 | 3991 ft | 211 kts | 210° |
| 2026-05-07 07:56 | 35.79379 | 139.71472 | 3722 ft | 199 kts | 209° |
| 2026-05-07 07:56 | 35.77886 | 139.70429 | 3489 ft | 181 kts | 210° |
| 2026-05-07 07:56 | 35.76767 | 139.69641 | 3446 ft | 182 kts | 210° |
| 2026-05-07 07:57 | 35.75699 | 139.68887 | 3377 ft | 176 kts | 210° |
| 2026-05-07 07:57 | 35.74941 | 139.68479 | 3352 ft | 177 kts | 195° |
| 2026-05-07 07:57 | 35.73722 | 139.68484 | 3354 ft | 175 kts | 172° |
| 2026-05-07 07:57 | 35.72549 | 139.68766 | 3353 ft | 171 kts | 172° |
| 2026-05-07 07:58 | 35.71383 | 139.69033 | 3349 ft | 172 kts | 173° |
| 2026-05-07 07:58 | 35.70207 | 139.69295 | 3350 ft | 170 kts | 172° |
| 2026-05-07 07:58 | 35.69094 | 139.69755 | 3339 ft | 173 kts | 158° |
| 2026-05-07 07:58 | 35.68052 | 139.70500 | 3253 ft | 170 kts | 153° |
| 2026-05-07 07:59 | 35.67090 | 139.71206 | 3246 ft | 154 kts | 155° |
| 2026-05-07 07:59 | 35.66160 | 139.71873 | 3250 ft | 155 kts | 155° |
| 2026-05-07 07:59 | 35.65229 | 139.72533 | 3248 ft | 154 kts | 156° |
| 2026-05-07 07:59 | 35.64302 | 139.73187 | 3151 ft | 153 kts | 155° |
| 2026-05-07 08:00 | 35.63373 | 139.73844 | 2792 ft | 157 kts | 155° |
| 2026-05-07 08:00 | 35.62447 | 139.74501 | 2355 ft | 153 kts | 156° |
| 2026-05-07 08:00 | 35.61539 | 139.75143 | 1763 ft | 155 kts | 155° |
| 2026-05-07 08:00 | 35.60602 | 139.75803 | 1235 ft | 153 kts | 154° |
| 2026-05-07 08:01 | 35.59707 | 139.76466 | 896 ft | 143 kts | 151° |
| 2026-05-07 08:01 | 35.58896 | 139.77057 | 698 ft | 130 kts | 154° |
| 2026-05-07 08:01 | 35.58138 | 139.77574 | 508 ft | 119 kts | 155° |
| 2026-05-07 08:01 | 35.57396 | 139.78105 | 335 ft | 125 kts | 156° |
| 2026-05-07 08:02 | 35.56642 | 139.78618 | 148 ft | 123 kts | 154° |
| 2026-05-07 08:02 | 35.55903 | 139.79139 | 31 ft | 120 kts | 154° |
| 2026-05-07 08:02 | 35.55309 | 139.79561 | 28 ft | 71 kts | 150° |
| 2026-05-07 08:02 | 35.54997 | 139.79783 | 29 ft | 44 kts | 150° |
| 2026-05-07 08:03 | 35.54737 | 139.79927 | 27 ft | 37 kts | 174° |
| 2026-05-07 08:03 | 35.54605 | 139.79915 | 27 ft | 17 kts | 216° |
| 2026-05-07 08:03 | 35.54542 | 139.79803 | 22 ft | 10 kts | 240° |
| 2026-05-07 08:03 | 35.54553 | 139.79717 | 25 ft | 9 kts | 336° |
| 2026-05-07 08:04 | 35.54623 | 139.79668 | 24 ft | 15 kts | 333° |
| 2026-05-07 08:04 | 35.54738 | 139.79584 | 26 ft | 17 kts | 319° |
| 2026-05-07 08:04 | 35.54721 | 139.79463 | 27 ft | 17 kts | 237° |
| 2026-05-07 08:04 | 35.54659 | 139.79329 | 28 ft | 19 kts | 235° |
| 2026-05-07 08:05 | 35.54593 | 139.79189 | 33 ft | 19 kts | 238° |
| 2026-05-07 08:05 | 35.54497 | 139.78984 | 37 ft | 30 kts | 239° |
| 2026-05-07 08:05 | 35.54430 | 139.78846 | 34 ft | 0 kts | 240° |
| 2026-05-07 08:05 | 35.54422 | 139.78807 | 33 ft | 8 kts | 285° |
| 2026-05-07 08:06 | 35.54496 | 139.78741 | 30 ft | 14 kts | 332° |
| 2026-05-07 08:06 | 35.54543 | 139.78708 | 29 ft | 1 kts | 329° |
| 2026-05-07 08:06 | 35.54547 | 139.78705 | 28 ft | 1 kts | 329° |
| 2026-05-07 08:06 | 35.54548 | 139.78705 | 28 ft | 0 kts | 329° |